Main page
METAR-TAF:

METAR-TAF

Airports :

Dushanbe, Tajikistan

Dushanbe International Airport

latitude: 38-33N, longitude: 068-47E, elevation: 803 m

Current weather observation

The report was made 28 minutes ago, at 04:30 UTC
Wind 4 kt from variable directions
Temperature 30°C
Humidity 35%
Pressure 1009 hPa
Visibility 10 km or more

METAR: UTDD 220430Z VRB02MPS 9999 NSC 30/13 Q1009 R09/D NOSIG RMK QFE689/0918

Time: 09:58 (04:58 UTC)

Forecast

The report was made 1 hour and 58 minutes ago, at 03:00 UTC
Forecast valid from 22 at 04 UTC to 22 at 16 UTC
Wind 4 kt from variable directions
Visibility: 6000 m
Few clouds at a height of 6600 ft, Cumulonimbus.
Scattered clouds at a height of 10000 ft
Temporary
from 22 at 05 UTC to 22 at 16 UTC
Wind 16 kt from the West with gusts up to 25 kt

TAF: UTDD 220300Z 2204/2216 VRB02MPS 6000 FEW066CB SCT100 TEMPO 2205/2216 27008G13MPS

Weather observations and forecasts of more than 4000 airports (METAR and TAF reports).

The available stations are represented by yellow and red dots on the map.

Hover mouse over dot to see the name of the station.

Then click to see weather observations and forecasts.

To change the map : click on the green buttons with a black cross to zoom in, on the green button with a dash to zoom out, or on the green arrows for adjacent maps.


METAR-TAF: